Terminal Aerodrome Forecast
Issued by NWS Houston/Galveston, TX

Home | Current Version | Previous Version | Text Only | Print | Product List | Glossary On
Versions: 1 2 3 4 5 6 7 8 9 10 11 12 13 14 15 16 17 18
000
FTUS44 KHGX 212335
TAFCLL
TAF
KCLL 212335Z 2200/2224 04006KT P6SM BKN040 BKN050
     FM220400 01012KT P6SM BKN050 BKN250
     FM220800 36013G23KT P6SM SCT025 BKN050
     FM221700 35015KT P6SM SKC=

USA.gov is the U.S. government's official web portal to all federal, state and local government web resources and services.